Ceuta Jet — 5BKM2 — position and weather

sailwx.info

Track history (hours):
 
Tides and Currents Weather Stations Pressure Air Temp Water Temp Dewpoint Dewpoint Depression Visibility Wind Speed Wind Dir Waves Ship Positions

Ceuta Jet

Last reported at 2018-Jul-17 22:30 UTC. Time now 2018-Jul-17 22:39 UTC.
Position N 36°01' W 005°22'.

Length 60 m; draft 2.4 m.

Type: High speed craft. MMSI: 212561000.

Date/timePositionNaut miles runAvg speedWind from/ knotsBaromVisibWave heightAir tempDewpointWater temp
2018-Jul-17 22:30N 36°01' W 005°22'815.1
2018-Jul-17 22:00N 35°54' W 005°19'0 0.7
2018-Jul-17 21:30N 35°54' W 005°19'1224.2
2018-Jul-17 21:01N 36°05' W 005°23'4 7.1
2018-Jul-17 20:30N 36°08' W 005°26'0 0.0
2018-Jul-17 20:00N 36°08' W 005°26'713.7
2018-Jul-17 19:31N 36°02' W 005°22'816.9
2018-Jul-17 19:01N 35°54' W 005°19'1 1.4
2018-Jul-17 18:31N 35°54' W 005°19'1224.6
2018-Jul-17 18:01N 36°06' W 005°23'3 6.4
2018-Jul-17 17:30N 36°08' W 005°26'0 0.1
2018-Jul-17 16:57N 36°08' W 005°26'614.2
2018-Jul-17 16:30N 36°03' W 005°22'918.5
2018-Jul-17 16:01N 35°54' W 005°19'0 0.6
2018-Jul-17 15:30N 35°54' W 005°19'1224.4
2018-Jul-17 15:01N 36°05' W 005°24'3 3.2
2018-Jul-17 13:58N 36°08' W 005°26'715.6
2018-Jul-17 13:31N 36°02' W 005°22'816.1
2018-Jul-17 13:00N 35°54' W 005°19'1 1.1
2018-Jul-17 12:31N 35°54' W 005°19'1326.4
2018-Jul-17 12:00N 36°06' W 005°23'4 2.6
2018-Jul-17 10:33N 36°03' W 005°23'128.8
2018-Jul-17 10:31N 36°01' W 005°22'815.8
2018-Jul-17 10:00N 35°54' W 005°19'1 1.1
2018-Jul-17 09:31N 35°54' W 005°19'1426.3
2018-Jul-17 08:59N 36°07' W 005°24'14 6.8
2018-Jul-17 06:58N 35°54' W 005°19'0 0.1
2018-Jul-17 06:30N 35°54' W 005°19'1622.7
2018-Jul-17 05:48N 36°09' W 005°26'1 0.3
2018-Jul-17 01:12N 36°08' W 005°26'0 0.0
2018-Jul-17 00:55N 36°08' W 005°26'0 0.0
2018-Jul-17 00:30N 36°08' W 005°26'0 0.0
2018-Jul-16 23:17N 36°08' W 005°26'0 1.3
2018-Jul-16 23:00N 36°08' W 005°26'918.5
2018-Jul-16 22:30N 36°01' W 005°19'713.6
2018-Jul-16 22:00N 35°54' W 005°19'2 3.5
2018-Jul-16 21:30N 35°55' W 005°19'1427.4
2018-Jul-16 21:00N 36°09' W 005°25'2 3.2
2018-Jul-16 20:30N 36°08' W 005°26'0 0.0
2018-Jul-16 19:58N 36°08' W 005°26'511.3
2018-Jul-16 19:31N 36°04' W 005°22'1020.4
2018-Jul-16 19:00N 35°54' W 005°19'1 1.4
2018-Jul-16 18:31N 35°54' W 005°19'1325.2
2018-Jul-16 18:01N 36°06' W 005°24'3 2.9
2018-Jul-16 16:59N 36°08' W 005°26'715.4
2018-Jul-16 16:31N 36°02' W 005°20'917.1
2018-Jul-16 16:00N 35°54' W 005°19'0 0.1
2018-Jul-16 15:30N 35°54' W 005°19'1122.9
2018-Jul-16 15:01N 36°05' W 005°23'4 4.3
2018-Jul-16 14:04N 36°08' W 005°26'1 8.1
2018-Jul-16 13:56N 36°09' W 005°26'919.9
2018-Jul-16 13:30N 36°01' W 005°21'714.9
2018-Jul-16 13:00N 35°54' W 005°19'1 1.3
2018-Jul-16 12:31N 35°54' W 005°19'1610.4
2018-Jul-16 10:58N 36°09' W 005°26'921.0
2018-Jul-16 10:31N 36°00' W 005°21'713.4
2018-Jul-16 10:01N 35°54' W 005°19'1 2.0
2018-Jul-16 09:31N 35°54' W 005°18'1510.1
2018-Jul-16 08:00N 36°08' W 005°26'918.5
2018-Jul-16 07:30N 36°00' W 005°21'713.1
2018-Jul-16 07:00N 35°54' W 005°19'0 0.1
2018-Jul-16 06:30N 35°54' W 005°19'1122.5
2018-Jul-16 06:01N 36°05' W 005°23'4 1.1
2018-Jul-16 02:15N 36°08' W 005°26'0 0.0
2018-Jul-16 01:59N 36°08' W 005°26'0 0.0
2018-Jul-16 01:30N 36°08' W 005°26'715.1
2018-Jul-16 01:01N 36°02' W 005°21'816.9
2018-Jul-16 00:30N 35°54' W 005°19'918.4
2018-Jul-16 00:01N 36°03' W 005°20'713.2
2018-Jul-15 23:29N 36°08' W 005°26'0 0.1
2018-Jul-15 23:00N 36°08' W 005°26'713.7
2018-Jul-15 22:30N 36°02' W 005°22'917.3
2018-Jul-15 22:01N 35°54' W 005°19'1 1.5
2018-Jul-15 21:31N 35°54' W 005°19'1326.2
2018-Jul-15 21:01N 36°07' W 005°24'3 2.3
2018-Jul-15 19:53N 36°09' W 005°26'821.3
2018-Jul-15 19:30N 36°01' W 005°21'815.6
2018-Jul-15 19:00N 35°54' W 005°19'3 6.3
2018-Jul-15 18:31N 35°57' W 005°20'12 9.0
2018-Jul-15 17:09N 36°08' W 005°26'0 3.0
2018-Jul-15 17:00N 36°08' W 005°26'918.3
2018-Jul-15 16:31N 35°60' W 005°21'612.6
2018-Jul-15 16:00N 35°54' W 005°19'2 3.6
2018-Jul-15 15:31N 35°55' W 005°19'1325.0
2018-Jul-15 15:00N 36°07' W 005°24'3 1.9
2018-Jul-15 13:34N 36°05' W 005°23'228.1
2018-Jul-15 13:31N 36°03' W 005°22'1019.7
2018-Jul-15 13:00N 35°54' W 005°19'3 6.3
2018-Jul-15 12:30N 35°57' W 005°19'1224.1
2018-Jul-15 12:00N 36°08' W 005°24'7 4.8
2018-Jul-15 10:38N 36°02' W 005°21'324.4
2018-Jul-15 10:30N 35°59' W 005°21'510.7
2018-Jul-15 10:00N 35°54' W 005°19'0 0.9
2018-Jul-15 09:31N 35°54' W 005°19'1223.5
2018-Jul-15 09:01N 36°05' W 005°23'4 7.2
2018-Jul-15 08:27N 36°08' W 005°26'2 3.4
2018-Jul-15 08:00N 36°09' W 005°25'1326.5
2018-Jul-15 07:31N 35°57' W 005°20'3 5.7
2018-Jul-15 07:00N 35°54' W 005°19'1 1.3
2018-Jul-15 06:31N 35°54' W 005°19'1325.8
2018-Jul-15 06:01N 36°06' W 005°24'3 2.6
2018-Jul-15 04:55N 36°08' W 005°26'0 0.0
2018-Jul-15 04:30N 36°08' W 005°26'0 0.0
2018-Jul-15 04:00N 36°08' W 005°26'0 0.0
2018-Jul-15 03:30N 36°08' W 005°26'0 0.0
2018-Jul-15 03:00N 36°08' W 005°26'0 0.0
2018-Jul-14 23:57N 36°08' W 005°26'0 0.0
2018-Jul-14 23:30N 36°08' W 005°26'2 2.5
2018-Jul-14 22:52N 36°09' W 005°25'1027.4
2018-Jul-14 22:31N 35°60' W 005°21'611.8
2018-Jul-14 22:00N 35°54' W 005°19'0 0.5
2018-Jul-14 21:30N 35°54' W 005°19'1515.1
2018-Jul-14 20:30N 36°08' W 005°26'0 0.0
2018-Jul-14 20:00N 36°08' W 005°26'612.9
2018-Jul-14 19:31N 36°03' W 005°22'918.2
2018-Jul-14 19:00N 35°54' W 005°19'0 0.6
2018-Jul-14 18:31N 35°54' W 005°19'1122.9
2018-Jul-14 18:01N 36°05' W 005°23'4 8.2
2018-Jul-14 17:30N 36°08' W 005°26'0 0.0
2018-Jul-14 17:00N 36°08' W 005°26'612.6
2018-Jul-14 16:31N 36°03' W 005°21'918.7
2018-Jul-14 16:00N 35°54' W 005°19'0 1.0
2018-Jul-14 15:31N 35°54' W 005°19'1325.3
2018-Jul-14 15:00N 36°06' W 005°23'3 5.9
2018-Jul-14 14:29N 36°08' W 005°26'9 8.8
2018-Jul-14 13:30N 36°00' W 005°21'713.4
2018-Jul-14 13:00N 35°54' W 005°19'0 1.0
2018-Jul-14 12:31N 35°54' W 005°19'9 5.2
2018-Jul-14 10:43N 36°03' W 005°22'626.9
2018-Jul-14 10:31N 35°57' W 005°20'3 6.8
2018-Jul-14 10:00N 35°54' W 005°19'3 6.3
2018-Jul-14 09:31N 35°57' W 005°19'1325.2
2018-Jul-14 09:00N 36°09' W 005°25'7 5.2
2018-Jul-14 07:40N 36°02' W 005°21'425.5
2018-Jul-14 07:31N 35°59' W 005°20'5 9.7
2018-Jul-14 07:00N 35°54' W 005°19'1 1.3
2018-Jul-14 06:31N 35°54' W 005°19'1325.6
2018-Jul-14 06:00N 36°06' W 005°23'3 0.5
2018-Jul-13 22:47N 36°09' W 005°26'620.3
2018-Jul-13 22:29N 36°03' W 005°22'1020.3
2018-Jul-13 22:00N 35°54' W 005°19'0 0.0
2018-Jul-13 21:30N 35°54' W 005°19'9 4.5
2018-Jul-13 19:29N 36°03' W 005°21'919.1
2018-Jul-13 19:00N 35°54' W 005°19'1 1.2
2018-Jul-13 18:30N 35°54' W 005°19'1610.4
2018-Jul-13 17:00N 36°08' W 005°26'1020.1
2018-Jul-13 16:30N 35°60' W 005°21'611.9
2018-Jul-13 16:00N 35°54' W 005°19'3 6.3
2018-Jul-13 15:31N 35°57' W 005°20'13 9.1
2018-Jul-13 14:07N 36°08' W 005°26'1118.8
2018-Jul-13 13:30N 35°58' W 005°20'4 8.8
2018-Jul-13 13:00N 35°54' W 005°19'1 1.2
2018-Jul-13 12:30N 35°54' W 005°19'1 0.0
2018-Jul-12 21:31N 35°54' W 005°19'0 0.0
2018-Jul-12 21:30N 35°54' W 005°19'918.9
2018-Jul-12 21:01N 36°03' W 005°22'6 6.1
2018-Jul-12 20:02N 36°08' W 005°26'0 2.7
2018-Jul-12 20:00N 36°08' W 005°26'816.6
2018-Jul-12 19:31N 36°01' W 005°21'714.3
2018-Jul-12 19:00N 35°54' W 005°19'0 0.3
2018-Jul-12 18:31N 35°54' W 005°19'16 9.4
2018-Jul-12 16:49N 36°09' W 005°26'723.5
2018-Jul-12 16:30N 36°02' W 005°22'917.7
2018-Jul-12 16:01N 35°54' W 005°19'0 0.1
2018-Jul-12 15:30N 35°54' W 005°19'1510.9
2018-Jul-12 14:07N 36°08' W 005°26'1 7.6
2018-Jul-12 13:58N 36°09' W 005°26'1021.0
2018-Jul-12 13:31N 36°00' W 005°21'713.3
2018-Jul-12 13:01N 35°54' W 005°19'2 3.1
2018-Jul-12 12:31N 35°55' W 005°18'14 9.9
2018-Jul-12 11:03N 36°08' W 005°26'0 9.4
2018-Jul-12 11:00N 36°08' W 005°26'1019.7
2018-Jul-12 10:31N 35°60' W 005°20'612.1
2018-Jul-12 10:00N 35°54' W 005°19'1 1.3
2018-Jul-12 09:31N 35°54' W 005°19'1 0.0
2018-Jul-11 18:32N 35°54' W 005°19'0 0.2
2018-Jul-11 18:30N 35°54' W 005°19'1321.9
2018-Jul-11 17:56N 36°06' W 005°24'3 3.5
2018-Jul-11 16:59N 36°09' W 005°26'1020.9
2018-Jul-11 16:31N 35°60' W 005°20'612.0
2018-Jul-11 16:00N 35°54' W 005°19'0 0.1
2018-Jul-11 15:30N 35°54' W 005°19'1122.4
2018-Jul-11 15:00N 36°05' W 005°23'2 1.3
2018-Jul-11 13:38N 36°03' W 005°22'324.6
2018-Jul-11 13:31N 36°00' W 005°20'713.4
2018-Jul-11 13:01N 35°54' W 005°19'0 0.8
2018-Jul-11 12:31N 35°54' W 005°19'1610.5
2018-Jul-11 11:00N 36°08' W 005°26'1020.3
2018-Jul-11 10:31N 35°59' W 005°21'611.0
2018-Jul-11 10:00N 35°54' W 005°19'0 0.7
2018-Jul-11 09:31N 35°54' W 005°19'9 4.7
2018-Jul-11 07:34N 36°02' W 005°22'124.9
2018-Jul-11 07:30N 36°01' W 005°22'815.2
2018-Jul-11 07:00N 35°54' W 005°19'1 1.4
2018-Jul-11 06:31N 35°54' W 005°19'1520.4
2018-Jul-11 05:46N 36°08' W 005°26'0 1.3
2018-Jul-11 05:28N 36°08' W 005°26'0 0.0
2018-Jul-11 05:00N 36°08' W 005°26'0 0.0
2018-Jul-11 04:28N 36°08' W 005°26'0 0.0
2018-Jul-11 04:00N 36°08' W 005°26'0 0.0
2018-Jul-11 03:30N 36°08' W 005°26'0 0.0
2018-Jul-11 03:01N 36°08' W 005°26'0 0.0
2018-Jul-11 02:30N 36°08' W 005°26'0 0.0
2018-Jul-11 02:01N 36°08' W 005°26'0 0.0
2018-Jul-11 01:31N 36°08' W 005°26'0 0.0
2018-Jul-11 00:56N 36°08' W 005°26'0 0.0
2018-Jul-11 00:27N 36°08' W 005°26'0 0.0
2018-Jul-10 23:48N 36°08' W 005°26'0 0.0
2018-Jul-10 22:57N 36°08' W 005°26'511.0
2018-Jul-10 22:31N 36°04' W 005°22'1121.4
2018-Jul-10 22:01N 35°54' W 005°19'0 0.9
2018-Jul-10 21:31N 35°54' W 005°19'1325.9
2018-Jul-10 21:00N 36°06' W 005°24'3 3.1
2018-Jul-10 20:05N 36°08' W 005°26'0 5.4
2018-Jul-10 20:00N 36°08' W 005°26'816.6
2018-Jul-10 19:30N 36°01' W 005°21'714.6
2018-Jul-10 19:01N 35°54' W 005°19'1 1.2
2018-Jul-10 18:30N 35°54' W 005°19'1324.8
2018-Jul-10 18:00N 36°06' W 005°23'3 2.8
2018-Jul-10 16:48N 36°09' W 005°25'825.1
2018-Jul-10 16:29N 36°02' W 005°21'817.3
2018-Jul-10 16:00N 35°54' W 005°19'0 0.0
2018-Jul-10 15:31N 35°54' W 005°19'1121.7
2018-Jul-10 15:00N 36°04' W 005°23'1 0.7
2018-Jul-10 13:41N 36°03' W 005°22'424.4
2018-Jul-10 13:30N 35°60' W 005°21'611.8
2018-Jul-10 13:00N 35°54' W 005°19'1 1.2
2018-Jul-10 12:31N 35°54' W 005°19'9 4.9
2018-Jul-10 10:38N 36°03' W 005°22'325.7
2018-Jul-10 10:31N 35°60' W 005°21'611.8
2018-Jul-10 10:00N 35°54' W 005°19'0 0.5
2018-Jul-10 09:30N 35°54' W 005°19'9 5.0
2018-Jul-10 07:39N 36°03' W 005°23'424.4
2018-Jul-10 07:31N 35°59' W 005°21'611.2
2018-Jul-10 07:00N 35°54' W 005°19'0 0.0
2018-Jul-10 06:31N 35°54' W 005°19'1523.4
2018-Jul-10 05:52N 36°08' W 005°24'2 4.5
2018-Jul-10 05:30N 36°08' W 005°26'0 0.0
2018-Jul-10 05:00N 36°08' W 005°26'0 0.0
2018-Jul-10 04:30N 36°08' W 005°26'0 0.0
2018-Jul-10 04:00N 36°08' W 005°26'0 0.0
2018-Jul-10 03:30N 36°08' W 005°26'0 0.0
2018-Jul-10 03:00N 36°08' W 005°26'0 0.0
2018-Jul-10 02:30N 36°08' W 005°26'0 0.0
2018-Jul-10 02:00N 36°08' W 005°26'0 0.0
2018-Jul-10 01:29N 36°08' W 005°26'0 0.0
2018-Jul-10 00:57N 36°08' W 005°26'0 0.0
2018-Jul-10 00:30N 36°08' W 005°26'0 0.0
2018-Jul-10 00:00N 36°08' W 005°26'1 0.5
2018-Jul-09 22:46N 36°08' W 005°26'517.2
2018-Jul-09 22:29N 36°04' W 005°22'1123.0
2018-Jul-09 22:00N 35°54' W 005°19'1 1.4
2018-Jul-09 21:31N 35°54' W 005°19'1427.4
2018-Jul-09 21:00N 36°07' W 005°24'2 4.5
2018-Jul-09 20:30N 36°08' W 005°26'1 1.0
2018-Jul-09 20:00N 36°08' W 005°26'1020.7
2018-Jul-09 19:31N 35°59' W 005°20'510.8
2018-Jul-09 19:00N 35°54' W 005°19'0 0.4
2018-Jul-09 18:30N 35°54' W 005°19'1122.3
2018-Jul-09 18:01N 36°04' W 005°23'4 4.6
2018-Jul-09 17:02N 36°08' W 005°26'0 0.9
2018-Jul-09 17:00N 36°08' W 005°26'815.9
2018-Jul-09 16:31N 36°01' W 005°21'714.6
2018-Jul-09 16:00N 35°54' W 005°19'1 1.3
2018-Jul-09 15:31N 35°54' W 005°19'1224.8
2018-Jul-09 15:00N 36°06' W 005°23'3 3.0
2018-Jul-09 13:59N 36°08' W 005°26'713.8
2018-Jul-09 13:31N 36°02' W 005°22'917.3
2018-Jul-09 13:00N 35°54' W 005°19'0 0.8
2018-Jul-09 12:31N 35°54' W 005°19'1510.4
2018-Jul-09 11:01N 36°08' W 005°26'512.9
2018-Jul-09 10:37N 36°03' W 005°23'327.2
2018-Jul-09 10:30N 36°01' W 005°21'714.1
2018-Jul-09 10:00N 35°54' W 005°19'1 1.6
2018-Jul-09 09:31N 35°54' W 005°18'9 4.9
2018-Jul-09 07:37N 36°02' W 005°23'325.8
2018-Jul-09 07:31N 35°60' W 005°23'713.3
2018-Jul-09 07:00N 35°54' W 005°19'0 0.7
2018-Jul-09 06:31N 35°54' W 005°19'1515.1
2018-Jul-09 05:30N 36°08' W 005°26'0 0.0
2018-Jul-09 04:59N 36°08' W 005°26'0 0.0
2018-Jul-09 04:18N 36°08' W 005°26'0 0.0
2018-Jul-09 04:01N 36°08' W 005°26'0 0.0
2018-Jul-09 03:30N 36°08' W 005°26'0 0.0
2018-Jul-09 02:56N 36°08' W 005°26'0 0.0
2018-Jul-09 02:30N 36°08' W 005°26'0 0.0
2018-Jul-09 02:00N 36°08' W 005°26'0 0.0
2018-Jul-09 01:28N 36°08' W 005°26'0 0.0
2018-Jul-09 01:01N 36°08' W 005°26'0 0.0
2018-Jul-08 22:52N 36°08' W 005°26'411.1
2018-Jul-08 22:31N 36°05' W 005°23'1122.8
2018-Jul-08 22:01N 35°54' W 005°19'0 0.3
2018-Jul-08 21:31N 35°54' W 005°19'1122.9
2018-Jul-08 21:01N 36°05' W 005°23'4 4.1
2018-Jul-08 19:59N 36°08' W 005°26'714.5
2018-Jul-08 19:31N 36°02' W 005°21'816.7
2018-Jul-08 19:00N 35°54' W 005°19'3 5.5
2018-Jul-08 18:31N 35°56' W 005°19'13 9.0
2018-Jul-08 17:07N 36°08' W 005°26'1 5.2
2018-Jul-08 17:00N 36°08' W 005°26'918.1
2018-Jul-08 16:31N 36°00' W 005°21'713.5
2018-Jul-08 16:00N 35°54' W 005°19'2 4.1
2018-Jul-08 15:31N 35°56' W 005°19'1224.8
2018-Jul-08 15:00N 36°07' W 005°24'2 2.2
2018-Jul-08 14:06N 36°08' W 005°26'1 6.1
2018-Jul-08 14:00N 36°08' W 005°26'917.3
2018-Jul-08 13:30N 35°60' W 005°23'713.5
2018-Jul-08 13:00N 35°54' W 005°19'2 4.7
2018-Jul-08 12:31N 35°56' W 005°18'1325.2
2018-Jul-08 12:01N 36°07' W 005°24'4 3.0
2018-Jul-08 10:40N 36°03' W 005°23'425.3
2018-Jul-08 10:31N 35°59' W 005°21'611.9
2018-Jul-08 10:00N 35°54' W 005°19'1 1.2
2018-Jul-08 09:31N 35°54' W 005°19'1610.7
2018-Jul-08 08:02N 36°08' W 005°26'514.7
2018-Jul-08 07:42N 36°04' W 005°23'525.5
2018-Jul-08 07:31N 35°60' W 005°21'611.8
2018-Jul-08 07:00N 35°54' W 005°19'1 1.1
2018-Jul-08 06:31N 35°54' W 005°19'1326.4
2018-Jul-08 06:01N 36°06' W 005°23'3 0.5
2018-Jul-08 00:03N 36°08' W 005°26'0 0.1
2018-Jul-07 23:59N 36°08' W 005°26'0 0.0
2018-Jul-07 22:56N 36°08' W 005°26'512.0
2018-Jul-07 22:31N 36°04' W 005°22'  
Track history (hours):
 
Tides and Currents Weather Stations Pressure Air Temp Water Temp Dewpoint Dewpoint Depression Visibility Wind Speed Wind Dir Waves Ship Positions

Ceuta Jet

Last reported at 2018-Jul-17 22:30 UTC. Time now 2018-Jul-17 22:39 UTC.
Position N 36°01' W 005°22'.

Length 60 m; draft 2.4 m.

Type: High speed craft. MMSI: 212561000.

Date/timePositionNaut miles runAvg speedWind from/ knotsBaromVisibWave heightAir tempDewpointWater temp
2018-Jul-17 22:30N 36°01' W 005°22'815.1
2018-Jul-17 22:00N 35°54' W 005°19'0 0.7
2018-Jul-17 21:30N 35°54' W 005°19'1224.2
2018-Jul-17 21:01N 36°05' W 005°23'4 7.1
2018-Jul-17 20:30N 36°08' W 005°26'0 0.0
2018-Jul-17 20:00N 36°08' W 005°26'713.7
2018-Jul-17 19:31N 36°02' W 005°22'816.9
2018-Jul-17 19:01N 35°54' W 005°19'1 1.4
2018-Jul-17 18:31N 35°54' W 005°19'1224.6
2018-Jul-17 18:01N 36°06' W 005°23'3 6.4
2018-Jul-17 17:30N 36°08' W 005°26'0 0.1
2018-Jul-17 16:57N 36°08' W 005°26'614.2
2018-Jul-17 16:30N 36°03' W 005°22'918.5
2018-Jul-17 16:01N 35°54' W 005°19'0 0.6
2018-Jul-17 15:30N 35°54' W 005°19'1224.4
2018-Jul-17 15:01N 36°05' W 005°24'3 3.2
2018-Jul-17 13:58N 36°08' W 005°26'715.6
2018-Jul-17 13:31N 36°02' W 005°22'816.1
2018-Jul-17 13:00N 35°54' W 005°19'1 1.1
2018-Jul-17 12:31N 35°54' W 005°19'1326.4
2018-Jul-17 12:00N 36°06' W 005°23'4 2.6
2018-Jul-17 10:33N 36°03' W 005°23'128.8
2018-Jul-17 10:31N 36°01' W 005°22'815.8
2018-Jul-17 10:00N 35°54' W 005°19'1 1.1
2018-Jul-17 09:31N 35°54' W 005°19'1426.3
2018-Jul-17 08:59N 36°07' W 005°24'14 6.8
2018-Jul-17 06:58N 35°54' W 005°19'0 0.1
2018-Jul-17 06:30N 35°54' W 005°19'1622.7
2018-Jul-17 05:48N 36°09' W 005°26'1 0.3
2018-Jul-17 01:12N 36°08' W 005°26'0 0.0
2018-Jul-17 00:55N 36°08' W 005°26'0 0.0
2018-Jul-17 00:30N 36°08' W 005°26'0 0.0
2018-Jul-16 23:17N 36°08' W 005°26'0 1.3
2018-Jul-16 23:00N 36°08' W 005°26'918.5
2018-Jul-16 22:30N 36°01' W 005°19'713.6
2018-Jul-16 22:00N 35°54' W 005°19'2 3.5
2018-Jul-16 21:30N 35°55' W 005°19'1427.4
2018-Jul-16 21:00N 36°09' W 005°25'2 3.2
2018-Jul-16 20:30N 36°08' W 005°26'0 0.0
2018-Jul-16 19:58N 36°08' W 005°26'511.3
2018-Jul-16 19:31N 36°04' W 005°22'1020.4
2018-Jul-16 19:00N 35°54' W 005°19'1 1.4
2018-Jul-16 18:31N 35°54' W 005°19'1325.2
2018-Jul-16 18:01N 36°06' W 005°24'3 2.9
2018-Jul-16 16:59N 36°08' W 005°26'715.4
2018-Jul-16 16:31N 36°02' W 005°20'917.1
2018-Jul-16 16:00N 35°54' W 005°19'0 0.1
2018-Jul-16 15:30N 35°54' W 005°19'1122.9
2018-Jul-16 15:01N 36°05' W 005°23'4 4.3
2018-Jul-16 14:04N 36°08' W 005°26'1 8.1
2018-Jul-16 13:56N 36°09' W 005°26'919.9
2018-Jul-16 13:30N 36°01' W 005°21'714.9
2018-Jul-16 13:00N 35°54' W 005°19'1 1.3
2018-Jul-16 12:31N 35°54' W 005°19'1610.4
2018-Jul-16 10:58N 36°09' W 005°26'921.0
2018-Jul-16 10:31N 36°00' W 005°21'713.4
2018-Jul-16 10:01N 35°54' W 005°19'1 2.0
2018-Jul-16 09:31N 35°54' W 005°18'1510.1
2018-Jul-16 08:00N 36°08' W 005°26'918.5
2018-Jul-16 07:30N 36°00' W 005°21'713.1
2018-Jul-16 07:00N 35°54' W 005°19'0 0.1
2018-Jul-16 06:30N 35°54' W 005°19'1122.5
2018-Jul-16 06:01N 36°05' W 005°23'4 1.1
2018-Jul-16 02:15N 36°08' W 005°26'0 0.0
2018-Jul-16 01:59N 36°08' W 005°26'0 0.0
2018-Jul-16 01:30N 36°08' W 005°26'715.1
2018-Jul-16 01:01N 36°02' W 005°21'816.9
2018-Jul-16 00:30N 35°54' W 005°19'918.4
2018-Jul-16 00:01N 36°03' W 005°20'713.2
2018-Jul-15 23:29N 36°08' W 005°26'0 0.1
2018-Jul-15 23:00N 36°08' W 005°26'713.7
2018-Jul-15 22:30N 36°02' W 005°22'917.3
2018-Jul-15 22:01N 35°54' W 005°19'1 1.5
2018-Jul-15 21:31N 35°54' W 005°19'1326.2
2018-Jul-15 21:01N 36°07' W 005°24'3 2.3
2018-Jul-15 19:53N 36°09' W 005°26'821.3
2018-Jul-15 19:30N 36°01' W 005°21'815.6
2018-Jul-15 19:00N 35°54' W 005°19'3 6.3
2018-Jul-15 18:31N 35°57' W 005°20'12 9.0
2018-Jul-15 17:09N 36°08' W 005°26'0 3.0
2018-Jul-15 17:00N 36°08' W 005°26'918.3
2018-Jul-15 16:31N 35°60' W 005°21'612.6
2018-Jul-15 16:00N 35°54' W 005°19'2 3.6
2018-Jul-15 15:31N 35°55' W 005°19'1325.0
2018-Jul-15 15:00N 36°07' W 005°24'3 1.9
2018-Jul-15 13:34N 36°05' W 005°23'228.1
2018-Jul-15 13:31N 36°03' W 005°22'1019.7
2018-Jul-15 13:00N 35°54' W 005°19'3 6.3
2018-Jul-15 12:30N 35°57' W 005°19'1224.1
2018-Jul-15 12:00N 36°08' W 005°24'7 4.8
2018-Jul-15 10:38N 36°02' W 005°21'324.4
2018-Jul-15 10:30N 35°59' W 005°21'510.7
2018-Jul-15 10:00N 35°54' W 005°19'0 0.9
2018-Jul-15 09:31N 35°54' W 005°19'1223.5
2018-Jul-15 09:01N 36°05' W 005°23'4 7.2
2018-Jul-15 08:27N 36°08' W 005°26'2 3.4
2018-Jul-15 08:00N 36°09' W 005°25'1326.5
2018-Jul-15 07:31N 35°57' W 005°20'3 5.7
2018-Jul-15 07:00N 35°54' W 005°19'1 1.3
2018-Jul-15 06:31N 35°54' W 005°19'1325.8
2018-Jul-15 06:01N 36°06' W 005°24'3 2.6
2018-Jul-15 04:55N 36°08' W 005°26'0 0.0
2018-Jul-15 04:30N 36°08' W 005°26'0 0.0
2018-Jul-15 04:00N 36°08' W 005°26'0 0.0
2018-Jul-15 03:30N 36°08' W 005°26'0 0.0
2018-Jul-15 03:00N 36°08' W 005°26'0 0.0
2018-Jul-14 23:57N 36°08' W 005°26'0 0.0
2018-Jul-14 23:30N 36°08' W 005°26'2 2.5
2018-Jul-14 22:52N 36°09' W 005°25'1027.4
2018-Jul-14 22:31N 35°60' W 005°21'611.8
2018-Jul-14 22:00N 35°54' W 005°19'0 0.5
2018-Jul-14 21:30N 35°54' W 005°19'1515.1
2018-Jul-14 20:30N 36°08' W 005°26'0 0.0
2018-Jul-14 20:00N 36°08' W 005°26'612.9
2018-Jul-14 19:31N 36°03' W 005°22'918.2
2018-Jul-14 19:00N 35°54' W 005°19'0 0.6
2018-Jul-14 18:31N 35°54' W 005°19'1122.9
2018-Jul-14 18:01N 36°05' W 005°23'4 8.2
2018-Jul-14 17:30N 36°08' W 005°26'0 0.0
2018-Jul-14 17:00N 36°08' W 005°26'612.6
2018-Jul-14 16:31N 36°03' W 005°21'918.7
2018-Jul-14 16:00N 35°54' W 005°19'0 1.0
2018-Jul-14 15:31N 35°54' W 005°19'1325.3
2018-Jul-14 15:00N 36°06' W 005°23'3 5.9
2018-Jul-14 14:29N 36°08' W 005°26'9 8.8
2018-Jul-14 13:30N 36°00' W 005°21'713.4
2018-Jul-14 13:00N 35°54' W 005°19'0 1.0
2018-Jul-14 12:31N 35°54' W 005°19'9 5.2
2018-Jul-14 10:43N 36°03' W 005°22'626.9
2018-Jul-14 10:31N 35°57' W 005°20'3 6.8
2018-Jul-14 10:00N 35°54' W 005°19'3 6.3
2018-Jul-14 09:31N 35°57' W 005°19'1325.2
2018-Jul-14 09:00N 36°09' W 005°25'7 5.2
2018-Jul-14 07:40N 36°02' W 005°21'425.5
2018-Jul-14 07:31N 35°59' W 005°20'5 9.7
2018-Jul-14 07:00N 35°54' W 005°19'1 1.3
2018-Jul-14 06:31N 35°54' W 005°19'1325.6
2018-Jul-14 06:00N 36°06' W 005°23'3 0.5
2018-Jul-13 22:47N 36°09' W 005°26'620.3
2018-Jul-13 22:29N 36°03' W 005°22'1020.3
2018-Jul-13 22:00N 35°54' W 005°19'0 0.0
2018-Jul-13 21:30N 35°54' W 005°19'9 4.5
2018-Jul-13 19:29N 36°03' W 005°21'919.1
2018-Jul-13 19:00N 35°54' W 005°19'1 1.2
2018-Jul-13 18:30N 35°54' W 005°19'1610.4
2018-Jul-13 17:00N 36°08' W 005°26'1020.1
2018-Jul-13 16:30N 35°60' W 005°21'611.9
2018-Jul-13 16:00N 35°54' W 005°19'3 6.3
2018-Jul-13 15:31N 35°57' W 005°20'13 9.1
2018-Jul-13 14:07N 36°08' W 005°26'1118.8
2018-Jul-13 13:30N 35°58' W 005°20'4 8.8
2018-Jul-13 13:00N 35°54' W 005°19'1 1.2
2018-Jul-13 12:30N 35°54' W 005°19'1 0.0
2018-Jul-12 21:31N 35°54' W 005°19'0 0.0
2018-Jul-12 21:30N 35°54' W 005°19'918.9
2018-Jul-12 21:01N 36°03' W 005°22'6 6.1
2018-Jul-12 20:02N 36°08' W 005°26'0 2.7
2018-Jul-12 20:00N 36°08' W 005°26'816.6
2018-Jul-12 19:31N 36°01' W 005°21'714.3
2018-Jul-12 19:00N 35°54' W 005°19'0 0.3
2018-Jul-12 18:31N 35°54' W 005°19'16 9.4
2018-Jul-12 16:49N 36°09' W 005°26'723.5
2018-Jul-12 16:30N 36°02' W 005°22'917.7
2018-Jul-12 16:01N 35°54' W 005°19'0 0.1
2018-Jul-12 15:30N 35°54' W 005°19'1510.9
2018-Jul-12 14:07N 36°08' W 005°26'1 7.6
2018-Jul-12 13:58N 36°09' W 005°26'1021.0
2018-Jul-12 13:31N 36°00' W 005°21'713.3
2018-Jul-12 13:01N 35°54' W 005°19'2 3.1
2018-Jul-12 12:31N 35°55' W 005°18'14 9.9
2018-Jul-12 11:03N 36°08' W 005°26'0 9.4
2018-Jul-12 11:00N 36°08' W 005°26'1019.7
2018-Jul-12 10:31N 35°60' W 005°20'612.1
2018-Jul-12 10:00N 35°54' W 005°19'1 1.3
2018-Jul-12 09:31N 35°54' W 005°19'1 0.0
2018-Jul-11 18:32N 35°54' W 005°19'0 0.2
2018-Jul-11 18:30N 35°54' W 005°19'1321.9
2018-Jul-11 17:56N 36°06' W 005°24'3 3.5
2018-Jul-11 16:59N 36°09' W 005°26'1020.9
2018-Jul-11 16:31N 35°60' W 005°20'612.0
2018-Jul-11 16:00N 35°54' W 005°19'0 0.1
2018-Jul-11 15:30N 35°54' W 005°19'1122.4
2018-Jul-11 15:00N 36°05' W 005°23'2 1.3
2018-Jul-11 13:38N 36°03' W 005°22'324.6
2018-Jul-11 13:31N 36°00' W 005°20'713.4
2018-Jul-11 13:01N 35°54' W 005°19'0 0.8
2018-Jul-11 12:31N 35°54' W 005°19'1610.5
2018-Jul-11 11:00N 36°08' W 005°26'1020.3
2018-Jul-11 10:31N 35°59' W 005°21'611.0
2018-Jul-11 10:00N 35°54' W 005°19'0 0.7
2018-Jul-11 09:31N 35°54' W 005°19'9 4.7
2018-Jul-11 07:34N 36°02' W 005°22'124.9
2018-Jul-11 07:30N 36°01' W 005°22'815.2
2018-Jul-11 07:00N 35°54' W 005°19'1 1.4
2018-Jul-11 06:31N 35°54' W 005°19'1520.4
2018-Jul-11 05:46N 36°08' W 005°26'0 1.3
2018-Jul-11 05:28N 36°08' W 005°26'0 0.0
2018-Jul-11 05:00N 36°08' W 005°26'0 0.0
2018-Jul-11 04:28N 36°08' W 005°26'0 0.0
2018-Jul-11 04:00N 36°08' W 005°26'0 0.0
2018-Jul-11 03:30N 36°08' W 005°26'0 0.0
2018-Jul-11 03:01N 36°08' W 005°26'0 0.0
2018-Jul-11 02:30N 36°08' W 005°26'0 0.0
2018-Jul-11 02:01N 36°08' W 005°26'0 0.0
2018-Jul-11 01:31N 36°08' W 005°26'0 0.0
2018-Jul-11 00:56N 36°08' W 005°26'0 0.0
2018-Jul-11 00:27N 36°08' W 005°26'0 0.0
2018-Jul-10 23:48N 36°08' W 005°26'0 0.0
2018-Jul-10 22:57N 36°08' W 005°26'511.0
2018-Jul-10 22:31N 36°04' W 005°22'1121.4
2018-Jul-10 22:01N 35°54' W 005°19'0 0.9
2018-Jul-10 21:31N 35°54' W 005°19'1325.9
2018-Jul-10 21:00N 36°06' W 005°24'3 3.1
2018-Jul-10 20:05N 36°08' W 005°26'0 5.4
2018-Jul-10 20:00N 36°08' W 005°26'816.6
2018-Jul-10 19:30N 36°01' W 005°21'714.6
2018-Jul-10 19:01N 35°54' W 005°19'1 1.2
2018-Jul-10 18:30N 35°54' W 005°19'1324.8
2018-Jul-10 18:00N 36°06' W 005°23'3 2.8
2018-Jul-10 16:48N 36°09' W 005°25'825.1
2018-Jul-10 16:29N 36°02' W 005°21'817.3
2018-Jul-10 16:00N 35°54' W 005°19'0 0.0
2018-Jul-10 15:31N 35°54' W 005°19'1121.7
2018-Jul-10 15:00N 36°04' W 005°23'1 0.7
2018-Jul-10 13:41N 36°03' W 005°22'424.4
2018-Jul-10 13:30N 35°60' W 005°21'611.8
2018-Jul-10 13:00N 35°54' W 005°19'1 1.2
2018-Jul-10 12:31N 35°54' W 005°19'9 4.9
2018-Jul-10 10:38N 36°03' W 005°22'325.7
2018-Jul-10 10:31N 35°60' W 005°21'611.8
2018-Jul-10 10:00N 35°54' W 005°19'0 0.5
2018-Jul-10 09:30N 35°54' W 005°19'9 5.0
2018-Jul-10 07:39N 36°03' W 005°23'424.4
2018-Jul-10 07:31N 35°59' W 005°21'611.2
2018-Jul-10 07:00N 35°54' W 005°19'0 0.0
2018-Jul-10 06:31N 35°54' W 005°19'1523.4
2018-Jul-10 05:52N 36°08' W 005°24'2 4.5
2018-Jul-10 05:30N 36°08' W 005°26'0 0.0
2018-Jul-10 05:00N 36°08' W 005°26'0 0.0
2018-Jul-10 04:30N 36°08' W 005°26'0 0.0
2018-Jul-10 04:00N 36°08' W 005°26'0 0.0
2018-Jul-10 03:30N 36°08' W 005°26'0 0.0
2018-Jul-10 03:00N 36°08' W 005°26'0 0.0
2018-Jul-10 02:30N 36°08' W 005°26'0 0.0
2018-Jul-10 02:00N 36°08' W 005°26'0 0.0
2018-Jul-10 01:29N 36°08' W 005°26'0 0.0
2018-Jul-10 00:57N 36°08' W 005°26'0 0.0
2018-Jul-10 00:30N 36°08' W 005°26'0 0.0
2018-Jul-10 00:00N 36°08' W 005°26'1 0.5
2018-Jul-09 22:46N 36°08' W 005°26'517.2
2018-Jul-09 22:29N 36°04' W 005°22'1123.0
2018-Jul-09 22:00N 35°54' W 005°19'1 1.4
2018-Jul-09 21:31N 35°54' W 005°19'1427.4
2018-Jul-09 21:00N 36°07' W 005°24'2 4.5
2018-Jul-09 20:30N 36°08' W 005°26'1 1.0
2018-Jul-09 20:00N 36°08' W 005°26'1020.7
2018-Jul-09 19:31N 35°59' W 005°20'510.8
2018-Jul-09 19:00N 35°54' W 005°19'0 0.4
2018-Jul-09 18:30N 35°54' W 005°19'1122.3
2018-Jul-09 18:01N 36°04' W 005°23'4 4.6
2018-Jul-09 17:02N 36°08' W 005°26'0 0.9
2018-Jul-09 17:00N 36°08' W 005°26'815.9
2018-Jul-09 16:31N 36°01' W 005°21'714.6
2018-Jul-09 16:00N 35°54' W 005°19'1 1.3
2018-Jul-09 15:31N 35°54' W 005°19'1224.8
2018-Jul-09 15:00N 36°06' W 005°23'3 3.0
2018-Jul-09 13:59N 36°08' W 005°26'713.8
2018-Jul-09 13:31N 36°02' W 005°22'917.3
2018-Jul-09 13:00N 35°54' W 005°19'0 0.8
2018-Jul-09 12:31N 35°54' W 005°19'1510.4
2018-Jul-09 11:01N 36°08' W 005°26'512.9
2018-Jul-09 10:37N 36°03' W 005°23'327.2
2018-Jul-09 10:30N 36°01' W 005°21'714.1
2018-Jul-09 10:00N 35°54' W 005°19'1 1.6
2018-Jul-09 09:31N 35°54' W 005°18'9 4.9
2018-Jul-09 07:37N 36°02' W 005°23'325.8
2018-Jul-09 07:31N 35°60' W 005°23'713.3
2018-Jul-09 07:00N 35°54' W 005°19'0 0.7
2018-Jul-09 06:31N 35°54' W 005°19'1515.1
2018-Jul-09 05:30N 36°08' W 005°26'0 0.0
2018-Jul-09 04:59N 36°08' W 005°26'0 0.0
2018-Jul-09 04:18N 36°08' W 005°26'0 0.0
2018-Jul-09 04:01N 36°08' W 005°26'0 0.0
2018-Jul-09 03:30N 36°08' W 005°26'0 0.0
2018-Jul-09 02:56N 36°08' W 005°26'0 0.0
2018-Jul-09 02:30N 36°08' W 005°26'0 0.0
2018-Jul-09 02:00N 36°08' W 005°26'0 0.0
2018-Jul-09 01:28N 36°08' W 005°26'0 0.0
2018-Jul-09 01:01N 36°08' W 005°26'0 0.0
2018-Jul-08 22:52N 36°08' W 005°26'411.1
2018-Jul-08 22:31N 36°05' W 005°23'1122.8
2018-Jul-08 22:01N 35°54' W 005°19'0 0.3
2018-Jul-08 21:31N 35°54' W 005°19'1122.9
2018-Jul-08 21:01N 36°05' W 005°23'4 4.1
2018-Jul-08 19:59N 36°08' W 005°26'714.5
2018-Jul-08 19:31N 36°02' W 005°21'816.7
2018-Jul-08 19:00N 35°54' W 005°19'3 5.5
2018-Jul-08 18:31N 35°56' W 005°19'13 9.0
2018-Jul-08 17:07N 36°08' W 005°26'1 5.2
2018-Jul-08 17:00N 36°08' W 005°26'918.1
2018-Jul-08 16:31N 36°00' W 005°21'713.5
2018-Jul-08 16:00N 35°54' W 005°19'2 4.1
2018-Jul-08 15:31N 35°56' W 005°19'1224.8
2018-Jul-08 15:00N 36°07' W 005°24'2 2.2
2018-Jul-08 14:06N 36°08' W 005°26'1 6.1
2018-Jul-08 14:00N 36°08' W 005°26'917.3
2018-Jul-08 13:30N 35°60' W 005°23'713.5
2018-Jul-08 13:00N 35°54' W 005°19'2 4.7
2018-Jul-08 12:31N 35°56' W 005°18'1325.2
2018-Jul-08 12:01N 36°07' W 005°24'4 3.0
2018-Jul-08 10:40N 36°03' W 005°23'425.3
2018-Jul-08 10:31N 35°59' W 005°21'611.9
2018-Jul-08 10:00N 35°54' W 005°19'1 1.2
2018-Jul-08 09:31N 35°54' W 005°19'1610.7
2018-Jul-08 08:02N 36°08' W 005°26'514.7
2018-Jul-08 07:42N 36°04' W 005°23'525.5
2018-Jul-08 07:31N 35°60' W 005°21'611.8
2018-Jul-08 07:00N 35°54' W 005°19'1 1.1
2018-Jul-08 06:31N 35°54' W 005°19'1326.4
2018-Jul-08 06:01N 36°06' W 005°23'3 0.5
2018-Jul-08 00:03N 36°08' W 005°26'0 0.1
2018-Jul-07 23:59N 36°08' W 005°26'0 0.0
2018-Jul-07 22:56N 36°08' W 005°26'512.0
2018-Jul-07 22:31N 36°04' W 005°22'  

Dump ship's entire track history